sensor_id;sensor_type;location;lat;lon;timestamp;P1;durP1;ratioP1;P2;durP2;ratioP2
81160;SDS011;70637;48.514;14.500;2024-02-14T00:01:52;3.72;;;2.10;;
81160;SDS011;70637;48.514;14.500;2024-02-14T00:04:18;3.78;;;2.10;;
81160;SDS011;70637;48.514;14.500;2024-02-14T00:06:45;3.60;;;2.30;;
81160;SDS011;70637;48.514;14.500;2024-02-14T00:09:10;3.53;;;2.25;;
81160;SDS011;70637;48.514;14.500;2024-02-14T00:11:36;3.97;;;2.00;;
81160;SDS011;70637;48.514;14.500;2024-02-14T00:14:02;3.30;;;1.95;;
81160;SDS011;70637;48.514;14.500;2024-02-14T00:16:28;4.32;;;2.20;;
81160;SDS011;70637;48.514;14.500;2024-02-14T00:18:56;4.22;;;1.95;;
81160;SDS011;70637;48.514;14.500;2024-02-14T00:21:22;4.20;;;2.15;;
81160;SDS011;70637;48.514;14.500;2024-02-14T00:23:49;2.63;;;1.77;;
81160;SDS011;70637;48.514;14.500;2024-02-14T00:26:15;3.45;;;2.20;;
81160;SDS011;70637;48.514;14.500;2024-02-14T00:28:41;3.90;;;2.08;;
81160;SDS011;70637;48.514;14.500;2024-02-14T00:31:07;3.22;;;1.80;;
81160;SDS011;70637;48.514;14.500;2024-02-14T00:33:32;2.92;;;1.80;;
81160;SDS011;70637;48.514;14.500;2024-02-14T00:35:58;3.15;;;1.90;;
81160;SDS011;70637;48.514;14.500;2024-02-14T00:38:23;3.30;;;1.85;;
81160;SDS011;70637;48.514;14.500;2024-02-14T00:40:49;4.50;;;2.00;;
81160;SDS011;70637;48.514;14.500;2024-02-14T00:43:15;3.20;;;1.80;;
81160;SDS011;70637;48.514;14.500;2024-02-14T00:45:40;3.10;;;2.10;;
81160;SDS011;70637;48.514;14.500;2024-02-14T00:48:06;3.28;;;2.00;;
81160;SDS011;70637;48.514;14.500;2024-02-14T00:50:33;4.30;;;2.00;;
81160;SDS011;70637;48.514;14.500;2024-02-14T00:52:59;3.40;;;2.00;;
81160;SDS011;70637;48.514;14.500;2024-02-14T00:55:25;4.00;;;1.95;;
81160;SDS011;70637;48.514;14.500;2024-02-14T00:57:51;3.17;;;1.92;;
81160;SDS011;70637;48.514;14.500;2024-02-14T01:00:17;3.38;;;2.20;;
81160;SDS011;70637;48.514;14.500;2024-02-14T01:02:45;3.28;;;2.00;;
81160;SDS011;70637;48.514;14.500;2024-02-14T01:05:10;3.00;;;1.77;;
81160;SDS011;70637;48.514;14.500;2024-02-14T01:07:36;3.30;;;2.00;;
81160;SDS011;70637;48.514;14.500;2024-02-14T01:10:02;3.67;;;2.33;;
81160;SDS011;70637;48.514;14.500;2024-02-14T01:12:28;3.15;;;2.00;;
81160;SDS011;70637;48.514;14.500;2024-02-14T01:14:56;3.72;;;1.85;;
81160;SDS011;70637;48.514;14.500;2024-02-14T01:17:21;4.20;;;2.10;;
81160;SDS011;70637;48.514;14.500;2024-02-14T01:19:47;3.67;;;2.30;;
81160;SDS011;70637;48.514;14.500;2024-02-14T01:22:14;3.25;;;2.38;;
81160;SDS011;70637;48.514;14.500;2024-02-14T01:24:42;3.17;;;2.10;;
81160;SDS011;70637;48.514;14.500;2024-02-14T01:27:08;3.13;;;2.08;;
81160;SDS011;70637;48.514;14.500;2024-02-14T01:29:34;2.72;;;1.90;;
81160;SDS011;70637;48.514;14.500;2024-02-14T01:32:00;3.20;;;1.90;;
81160;SDS011;70637;48.514;14.500;2024-02-14T01:34:26;3.40;;;2.25;;
81160;SDS011;70637;48.514;14.500;2024-02-14T01:36:53;2.90;;;1.80;;
81160;SDS011;70637;48.514;14.500;2024-02-14T01:39:19;2.95;;;1.85;;
81160;SDS011;70637;48.514;14.500;2024-02-14T01:41:47;4.80;;;1.80;;
81160;SDS011;70637;48.514;14.500;2024-02-14T01:44:14;2.83;;;1.90;;
81160;SDS011;70637;48.514;14.500;2024-02-14T01:46:42;4.05;;;1.90;;
81160;SDS011;70637;48.514;14.500;2024-02-14T01:49:08;4.15;;;2.20;;
81160;SDS011;70637;48.514;14.500;2024-02-14T01:51:36;3.35;;;2.17;;
81160;SDS011;70637;48.514;14.500;2024-02-14T01:54:03;4.78;;;2.10;;
81160;SDS011;70637;48.514;14.500;2024-02-14T01:56:31;4.57;;;1.92;;
81160;SDS011;70637;48.514;14.500;2024-02-14T01:58:58;3.15;;;1.75;;
81160;SDS011;70637;48.514;14.500;2024-02-14T02:01:25;4.25;;;2.30;;
81160;SDS011;70637;48.514;14.500;2024-02-14T02:03:51;4.53;;;1.98;;
81160;SDS011;70637;48.514;14.500;2024-02-14T02:06:18;4.50;;;2.17;;
81160;SDS011;70637;48.514;14.500;2024-02-14T02:08:44;2.67;;;1.70;;
81160;SDS011;70637;48.514;14.500;2024-02-14T02:11:10;3.00;;;2.03;;
81160;SDS011;70637;48.514;14.500;2024-02-14T02:13:36;3.22;;;1.90;;
81160;SDS011;70637;48.514;14.500;2024-02-14T02:16:04;4.18;;;2.05;;
81160;SDS011;70637;48.514;14.500;2024-02-14T02:18:31;2.85;;;1.88;;
81160;SDS011;70637;48.514;14.500;2024-02-14T02:20:57;3.58;;;1.90;;
81160;SDS011;70637;48.514;14.500;2024-02-14T02:23:22;2.45;;;1.70;;
81160;SDS011;70637;48.514;14.500;2024-02-14T02:25:48;2.95;;;1.83;;
81160;SDS011;70637;48.514;14.500;2024-02-14T02:28:15;4.03;;;2.25;;
81160;SDS011;70637;48.514;14.500;2024-02-14T02:30:41;3.30;;;1.98;;
81160;SDS011;70637;48.514;14.500;2024-02-14T02:33:07;3.08;;;1.80;;
81160;SDS011;70637;48.514;14.500;2024-02-14T02:35:33;2.85;;;1.90;;
81160;SDS011;70637;48.514;14.500;2024-02-14T02:37:59;2.92;;;1.90;;
81160;SDS011;70637;48.514;14.500;2024-02-14T02:40:25;2.80;;;1.67;;
81160;SDS011;70637;48.514;14.500;2024-02-14T02:42:54;3.97;;;2.10;;
81160;SDS011;70637;48.514;14.500;2024-02-14T02:45:20;2.65;;;1.85;;
81160;SDS011;70637;48.514;14.500;2024-02-14T02:47:46;3.85;;;1.90;;
81160;SDS011;70637;48.514;14.500;2024-02-14T02:50:12;4.50;;;2.28;;
81160;SDS011;70637;48.514;14.500;2024-02-14T02:52:40;3.38;;;1.60;;
81160;SDS011;70637;48.514;14.500;2024-02-14T02:55:06;3.53;;;1.88;;
81160;SDS011;70637;48.514;14.500;2024-02-14T02:57:32;3.45;;;1.73;;
81160;SDS011;70637;48.514;14.500;2024-02-14T02:59:59;2.67;;;1.80;;
81160;SDS011;70637;48.514;14.500;2024-02-14T03:02:25;4.18;;;1.92;;
81160;SDS011;70637;48.514;14.500;2024-02-14T03:04:51;2.53;;;1.83;;
81160;SDS011;70637;48.514;14.500;2024-02-14T03:07:18;2.70;;;1.73;;
81160;SDS011;70637;48.514;14.500;2024-02-14T03:09:48;3.15;;;1.83;;
81160;SDS011;70637;48.514;14.500;2024-02-14T03:12:14;2.60;;;1.65;;
81160;SDS011;70637;48.514;14.500;2024-02-14T03:14:41;2.88;;;2.08;;
81160;SDS011;70637;48.514;14.500;2024-02-14T03:17:08;3.10;;;1.67;;
81160;SDS011;70637;48.514;14.500;2024-02-14T03:19:35;3.65;;;1.80;;
81160;SDS011;70637;48.514;14.500;2024-02-14T03:22:03;2.58;;;1.50;;
81160;SDS011;70637;48.514;14.500;2024-02-14T03:24:30;3.28;;;1.70;;
81160;SDS011;70637;48.514;14.500;2024-02-14T03:26:56;2.65;;;1.80;;
81160;SDS011;70637;48.514;14.500;2024-02-14T03:29:22;3.58;;;2.00;;
81160;SDS011;70637;48.514;14.500;2024-02-14T03:31:48;2.97;;;1.60;;
81160;SDS011;70637;48.514;14.500;2024-02-14T03:34:13;3.03;;;1.92;;
81160;SDS011;70637;48.514;14.500;2024-02-14T03:36:39;2.65;;;1.63;;
81160;SDS011;70637;48.514;14.500;2024-02-14T03:39:05;2.72;;;1.65;;
81160;SDS011;70637;48.514;14.500;2024-02-14T03:41:31;2.53;;;1.70;;
81160;SDS011;70637;48.514;14.500;2024-02-14T03:43:57;3.42;;;1.50;;
81160;SDS011;70637;48.514;14.500;2024-02-14T03:46:26;3.70;;;1.80;;
81160;SDS011;70637;48.514;14.500;2024-02-14T03:48:52;4.50;;;2.45;;
81160;SDS011;70637;48.514;14.500;2024-02-14T03:51:24;3.38;;;1.80;;
81160;SDS011;70637;48.514;14.500;2024-02-14T03:53:50;5.07;;;1.90;;
81160;SDS011;70637;48.514;14.500;2024-02-14T03:56:15;2.67;;;1.38;;
81160;SDS011;70637;48.514;14.500;2024-02-14T03:58:42;2.67;;;1.60;;
81160;SDS011;70637;48.514;14.500;2024-02-14T04:01:08;2.53;;;1.65;;
81160;SDS011;70637;48.514;14.500;2024-02-14T04:03:33;3.30;;;1.70;;
81160;SDS011;70637;48.514;14.500;2024-02-14T04:05:59;1.90;;;1.52;;
81160;SDS011;70637;48.514;14.500;2024-02-14T04:08:26;2.95;;;1.50;;
81160;SDS011;70637;48.514;14.500;2024-02-14T04:10:51;5.32;;;1.33;;
81160;SDS011;70637;48.514;14.500;2024-02-14T04:13:19;2.95;;;1.70;;
81160;SDS011;70637;48.514;14.500;2024-02-14T04:15:46;3.00;;;1.70;;
81160;SDS011;70637;48.514;14.500;2024-02-14T04:18:14;3.65;;;1.63;;
81160;SDS011;70637;48.514;14.500;2024-02-14T04:20:43;2.70;;;1.70;;
81160;SDS011;70637;48.514;14.500;2024-02-14T04:23:09;3.13;;;1.67;;
81160;SDS011;70637;48.514;14.500;2024-02-14T04:25:35;2.03;;;1.33;;
81160;SDS011;70637;48.514;14.500;2024-02-14T04:28:05;3.88;;;1.73;;
81160;SDS011;70637;48.514;14.500;2024-02-14T04:30:31;3.08;;;1.40;;
81160;SDS011;70637;48.514;14.500;2024-02-14T04:32:57;2.17;;;1.40;;
81160;SDS011;70637;48.514;14.500;2024-02-14T04:35:22;3.05;;;1.55;;
81160;SDS011;70637;48.514;14.500;2024-02-14T04:37:48;5.95;;;1.92;;
81160;SDS011;70637;48.514;14.500;2024-02-14T04:40:14;2.17;;;1.33;;
81160;SDS011;70637;48.514;14.500;2024-02-14T04:42:41;3.72;;;1.50;;
81160;SDS011;70637;48.514;14.500;2024-02-14T04:45:07;2.70;;;1.48;;
81160;SDS011;70637;48.514;14.500;2024-02-14T04:47:33;2.40;;;1.52;;
81160;SDS011;70637;48.514;14.500;2024-02-14T04:49:59;2.72;;;1.80;;
81160;SDS011;70637;48.514;14.500;2024-02-14T04:52:26;2.58;;;1.40;;
81160;SDS011;70637;48.514;14.500;2024-02-14T04:54:52;2.70;;;1.50;;
81160;SDS011;70637;48.514;14.500;2024-02-14T04:57:18;2.08;;;1.45;;
81160;SDS011;70637;48.514;14.500;2024-02-14T04:59:45;2.22;;;1.48;;
81160;SDS011;70637;48.514;14.500;2024-02-14T05:02:11;3.10;;;1.48;;
81160;SDS011;70637;48.514;14.500;2024-02-14T05:04:37;2.00;;;1.30;;
81160;SDS011;70637;48.514;14.500;2024-02-14T05:07:04;2.15;;;1.55;;
81160;SDS011;70637;48.514;14.500;2024-02-14T05:09:30;2.17;;;1.52;;
81160;SDS011;70637;48.514;14.500;2024-02-14T05:11:56;2.65;;;1.40;;
81160;SDS011;70637;48.514;14.500;2024-02-14T05:14:22;2.17;;;1.35;;
81160;SDS011;70637;48.514;14.500;2024-02-14T05:16:48;3.00;;;1.40;;
81160;SDS011;70637;48.514;14.500;2024-02-14T05:19:17;3.13;;;1.50;;
81160;SDS011;70637;48.514;14.500;2024-02-14T05:21:42;1.80;;;1.30;;
81160;SDS011;70637;48.514;14.500;2024-02-14T05:24:08;4.05;;;1.30;;
81160;SDS011;70637;48.514;14.500;2024-02-14T05:26:34;2.70;;;1.38;;
81160;SDS011;70637;48.514;14.500;2024-02-14T05:29:00;1.83;;;1.30;;
81160;SDS011;70637;48.514;14.500;2024-02-14T05:31:28;2.72;;;1.40;;
81160;SDS011;70637;48.514;14.500;2024-02-14T05:34:11;2.70;;;1.27;;
81160;SDS011;70637;48.514;14.500;2024-02-14T05:36:37;2.00;;;1.40;;
81160;SDS011;70637;48.514;14.500;2024-02-14T05:39:04;2.45;;;1.35;;
81160;SDS011;70637;48.514;14.500;2024-02-14T05:41:33;2.67;;;1.35;;
81160;SDS011;70637;48.514;14.500;2024-02-14T05:44:02;2.95;;;1.38;;
81160;SDS011;70637;48.514;14.500;2024-02-14T05:46:28;1.58;;;1.20;;
81160;SDS011;70637;48.514;14.500;2024-02-14T05:48:54;2.55;;;1.38;;
81160;SDS011;70637;48.514;14.500;2024-02-14T05:51:22;1.30;;;1.17;;
81160;SDS011;70637;48.514;14.500;2024-02-14T05:53:49;2.00;;;1.35;;
81160;SDS011;70637;48.514;14.500;2024-02-14T05:56:15;2.15;;;1.40;;
81160;SDS011;70637;48.514;14.500;2024-02-14T05:58:40;2.83;;;1.30;;
81160;SDS011;70637;48.514;14.500;2024-02-14T06:01:06;2.53;;;1.30;;
81160;SDS011;70637;48.514;14.500;2024-02-14T06:03:32;2.53;;;1.20;;
81160;SDS011;70637;48.514;14.500;2024-02-14T06:05:58;3.28;;;1.42;;
81160;SDS011;70637;48.514;14.500;2024-02-14T06:08:25;1.42;;;1.08;;
81160;SDS011;70637;48.514;14.500;2024-02-14T06:10:52;2.20;;;1.23;;
81160;SDS011;70637;48.514;14.500;2024-02-14T06:13:18;5.07;;;1.50;;
81160;SDS011;70637;48.514;14.500;2024-02-14T06:15:44;2.33;;;1.50;;
81160;SDS011;70637;48.514;14.500;2024-02-14T06:18:10;3.15;;;1.15;;
81160;SDS011;70637;48.514;14.500;2024-02-14T06:20:57;2.33;;;1.30;;
81160;SDS011;70637;48.514;14.500;2024-02-14T06:23:22;2.47;;;1.65;;
81160;SDS011;70637;48.514;14.500;2024-02-14T06:25:48;2.42;;;1.00;;
81160;SDS011;70637;48.514;14.500;2024-02-14T06:28:14;3.50;;;1.50;;
81160;SDS011;70637;48.514;14.500;2024-02-14T06:30:40;4.43;;;1.60;;
81160;SDS011;70637;48.514;14.500;2024-02-14T06:33:06;1.77;;;1.10;;
81160;SDS011;70637;48.514;14.500;2024-02-14T06:35:32;3.53;;;1.60;;
81160;SDS011;70637;48.514;14.500;2024-02-14T06:37:57;4.82;;;1.30;;
81160;SDS011;70637;48.514;14.500;2024-02-14T06:40:23;3.15;;;1.20;;
81160;SDS011;70637;48.514;14.500;2024-02-14T06:42:51;4.65;;;1.60;;
81160;SDS011;70637;48.514;14.500;2024-02-14T06:45:19;2.55;;;1.27;;
81160;SDS011;70637;48.514;14.500;2024-02-14T06:47:45;2.35;;;1.30;;
81160;SDS011;70637;48.514;14.500;2024-02-14T06:50:11;3.25;;;1.55;;
81160;SDS011;70637;48.514;14.500;2024-02-14T06:52:37;2.15;;;1.20;;
81160;SDS011;70637;48.514;14.500;2024-02-14T06:55:02;3.17;;;1.30;;
81160;SDS011;70637;48.514;14.500;2024-02-14T06:57:29;3.47;;;1.40;;
81160;SDS011;70637;48.514;14.500;2024-02-14T06:59:54;3.42;;;1.63;;
81160;SDS011;70637;48.514;14.500;2024-02-14T07:02:20;3.25;;;1.50;;
81160;SDS011;70637;48.514;14.500;2024-02-14T07:04:46;2.50;;;1.40;;
81160;SDS011;70637;48.514;14.500;2024-02-14T07:07:12;2.55;;;1.35;;
81160;SDS011;70637;48.514;14.500;2024-02-14T07:09:38;3.03;;;1.70;;
81160;SDS011;70637;48.514;14.500;2024-02-14T07:12:07;6.97;;;1.80;;
81160;SDS011;70637;48.514;14.500;2024-02-14T07:14:32;6.93;;;1.52;;
81160;SDS011;70637;48.514;14.500;2024-02-14T07:16:58;7.80;;;1.75;;
81160;SDS011;70637;48.514;14.500;2024-02-14T07:19:24;4.28;;;1.75;;
81160;SDS011;70637;48.514;14.500;2024-02-14T07:21:49;4.63;;;1.80;;
81160;SDS011;70637;48.514;14.500;2024-02-14T07:24:15;3.38;;;1.80;;
81160;SDS011;70637;48.514;14.500;2024-02-14T07:26:41;6.72;;;1.75;;
81160;SDS011;70637;48.514;14.500;2024-02-14T07:29:09;4.35;;;2.00;;
81160;SDS011;70637;48.514;14.500;2024-02-14T07:31:35;5.05;;;1.50;;
81160;SDS011;70637;48.514;14.500;2024-02-14T07:34:01;5.20;;;1.85;;
81160;SDS011;70637;48.514;14.500;2024-02-14T07:36:28;3.25;;;1.80;;
81160;SDS011;70637;48.514;14.500;2024-02-14T07:38:55;5.78;;;1.60;;
81160;SDS011;70637;48.514;14.500;2024-02-14T07:41:21;4.15;;;1.58;;
81160;SDS011;70637;48.514;14.500;2024-02-14T07:43:47;4.60;;;1.75;;
81160;SDS011;70637;48.514;14.500;2024-02-14T07:46:17;4.13;;;1.83;;
81160;SDS011;70637;48.514;14.500;2024-02-14T07:48:44;4.97;;;2.00;;
81160;SDS011;70637;48.514;14.500;2024-02-14T07:51:10;2.55;;;1.75;;
81160;SDS011;70637;48.514;14.500;2024-02-14T07:53:36;3.00;;;1.70;;
81160;SDS011;70637;48.514;14.500;2024-02-14T07:56:02;5.85;;;2.08;;
81160;SDS011;70637;48.514;14.500;2024-02-14T07:58:30;3.17;;;1.65;;
81160;SDS011;70637;48.514;14.500;2024-02-14T08:00:56;4.05;;;1.50;;
81160;SDS011;70637;48.514;14.500;2024-02-14T08:03:22;5.20;;;1.60;;
81160;SDS011;70637;48.514;14.500;2024-02-14T08:05:49;3.70;;;1.50;;
81160;SDS011;70637;48.514;14.500;2024-02-14T08:08:16;3.13;;;1.38;;
81160;SDS011;70637;48.514;14.500;2024-02-14T08:10:42;2.78;;;1.55;;
81160;SDS011;70637;48.514;14.500;2024-02-14T08:13:07;2.08;;;1.33;;
81160;SDS011;70637;48.514;14.500;2024-02-14T08:15:33;3.97;;;1.45;;
81160;SDS011;70637;48.514;14.500;2024-02-14T08:17:59;2.35;;;1.30;;
81160;SDS011;70637;48.514;14.500;2024-02-14T08:20:25;2.33;;;1.20;;
81160;SDS011;70637;48.514;14.500;2024-02-14T08:22:51;4.05;;;1.60;;
81160;SDS011;70637;48.514;14.500;2024-02-14T08:25:17;4.28;;;1.58;;
81160;SDS011;70637;48.514;14.500;2024-02-14T08:27:43;2.55;;;1.55;;
81160;SDS011;70637;48.514;14.500;2024-02-14T08:30:08;3.42;;;1.63;;
81160;SDS011;70637;48.514;14.500;2024-02-14T08:32:36;4.28;;;1.50;;
81160;SDS011;70637;48.514;14.500;2024-02-14T08:35:02;3.72;;;1.65;;
81160;SDS011;70637;48.514;14.500;2024-02-14T08:37:27;4.65;;;1.80;;
81160;SDS011;70637;48.514;14.500;2024-02-14T08:39:54;3.45;;;1.90;;
81160;SDS011;70637;48.514;14.500;2024-02-14T08:42:21;4.82;;;2.00;;
81160;SDS011;70637;48.514;14.500;2024-02-14T08:44:47;3.15;;;1.80;;
81160;SDS011;70637;48.514;14.500;2024-02-14T08:47:13;6.38;;;2.40;;
81160;SDS011;70637;48.514;14.500;2024-02-14T08:49:42;5.68;;;2.05;;
81160;SDS011;70637;48.514;14.500;2024-02-14T08:52:10;4.15;;;2.35;;
81160;SDS011;70637;48.514;14.500;2024-02-14T08:54:36;3.90;;;2.00;;
81160;SDS011;70637;48.514;14.500;2024-02-14T08:57:02;4.45;;;2.10;;
81160;SDS011;70637;48.514;14.500;2024-02-14T08:59:28;3.90;;;2.10;;
81160;SDS011;70637;48.514;14.500;2024-02-14T09:01:54;4.32;;;2.22;;
81160;SDS011;70637;48.514;14.500;2024-02-14T09:04:19;3.63;;;2.13;;
81160;SDS011;70637;48.514;14.500;2024-02-14T09:06:45;4.07;;;2.20;;
81160;SDS011;70637;48.514;14.500;2024-02-14T09:09:11;3.20;;;1.75;;
81160;SDS011;70637;48.514;14.500;2024-02-14T09:11:39;5.85;;;2.03;;
81160;SDS011;70637;48.514;14.500;2024-02-14T09:14:06;5.88;;;2.15;;
81160;SDS011;70637;48.514;14.500;2024-02-14T09:16:32;3.30;;;2.10;;
81160;SDS011;70637;48.514;14.500;2024-02-14T09:18:59;3.65;;;2.10;;
81160;SDS011;70637;48.514;14.500;2024-02-14T09:21:26;2.92;;;1.90;;
81160;SDS011;70637;48.514;14.500;2024-02-14T09:23:53;3.63;;;2.08;;
81160;SDS011;70637;48.514;14.500;2024-02-14T09:26:18;4.50;;;2.00;;
81160;SDS011;70637;48.514;14.500;2024-02-14T09:28:44;3.25;;;2.10;;
81160;SDS011;70637;48.514;14.500;2024-02-14T09:31:10;4.80;;;1.95;;
81160;SDS011;70637;48.514;14.500;2024-02-14T09:33:37;3.75;;;1.85;;
81160;SDS011;70637;48.514;14.500;2024-02-14T09:36:04;2.72;;;1.83;;
81160;SDS011;70637;48.514;14.500;2024-02-14T09:38:30;3.38;;;1.83;;
81160;SDS011;70637;48.514;14.500;2024-02-14T09:43:43;3.60;;;2.10;;
81160;SDS011;70637;48.514;14.500;2024-02-14T09:46:14;2.85;;;1.95;;
81160;SDS011;70637;48.514;14.500;2024-02-14T09:48:43;3.20;;;1.80;;
81160;SDS011;70637;48.514;14.500;2024-02-14T09:51:11;3.38;;;2.08;;
81160;SDS011;70637;48.514;14.500;2024-02-14T09:53:41;2.55;;;1.95;;
81160;SDS011;70637;48.514;14.500;2024-02-14T09:56:10;2.90;;;1.75;;
81160;SDS011;70637;48.514;14.500;2024-02-14T09:58:38;2.53;;;2.00;;
81160;SDS011;70637;48.514;14.500;2024-02-14T10:01:05;3.55;;;1.95;;
81160;SDS011;70637;48.514;14.500;2024-02-14T10:03:32;4.80;;;1.80;;
81160;SDS011;70637;48.514;14.500;2024-02-14T10:05:59;3.17;;;1.63;;
81160;SDS011;70637;48.514;14.500;2024-02-14T10:08:25;6.05;;;2.00;;
81160;SDS011;70637;48.514;14.500;2024-02-14T10:10:53;2.88;;;1.80;;
81160;SDS011;70637;48.514;14.500;2024-02-14T10:13:26;2.75;;;1.55;;
81160;SDS011;70637;48.514;14.500;2024-02-14T10:15:53;3.75;;;1.98;;
81160;SDS011;70637;48.514;14.500;2024-02-14T10:18:20;3.10;;;1.90;;
81160;SDS011;70637;48.514;14.500;2024-02-14T10:20:54;2.85;;;1.60;;
81160;SDS011;70637;48.514;14.500;2024-02-14T10:23:23;4.57;;;1.77;;
81160;SDS011;70637;48.514;14.500;2024-02-14T10:25:54;3.03;;;1.85;;
81160;SDS011;70637;48.514;14.500;2024-02-14T10:28:22;3.33;;;2.15;;
81160;SDS011;70637;48.514;14.500;2024-02-14T10:30:48;2.72;;;1.80;;
81160;SDS011;70637;48.514;14.500;2024-02-14T10:33:18;3.45;;;2.00;;
81160;SDS011;70637;48.514;14.500;2024-02-14T10:38:13;3.10;;;1.90;;
81160;SDS011;70637;48.514;14.500;2024-02-14T10:40:41;2.85;;;1.80;;
81160;SDS011;70637;48.514;14.500;2024-02-14T10:43:08;3.83;;;2.08;;
81160;SDS011;70637;48.514;14.500;2024-02-14T10:45:37;3.97;;;2.00;;
81160;SDS011;70637;48.514;14.500;2024-02-14T10:48:04;3.15;;;1.95;;
81160;SDS011;70637;48.514;14.500;2024-02-14T10:50:32;4.60;;;2.00;;
81160;SDS011;70637;48.514;14.500;2024-02-14T10:53:05;3.90;;;1.90;;
81160;SDS011;70637;48.514;14.500;2024-02-14T10:55:33;3.13;;;2.00;;
81160;SDS011;70637;48.514;14.500;2024-02-14T10:57:59;3.30;;;2.10;;
81160;SDS011;70637;48.514;14.500;2024-02-14T11:00:26;3.30;;;1.77;;
81160;SDS011;70637;48.514;14.500;2024-02-14T11:02:54;3.50;;;2.05;;
81160;SDS011;70637;48.514;14.500;2024-02-14T11:05:21;3.40;;;2.05;;
81160;SDS011;70637;48.514;14.500;2024-02-14T11:07:49;4.07;;;2.13;;
81160;SDS011;70637;48.514;14.500;2024-02-14T11:10:17;3.55;;;2.10;;
81160;SDS011;70637;48.514;14.500;2024-02-14T11:12:46;2.90;;;2.10;;
81160;SDS011;70637;48.514;14.500;2024-02-14T11:15:20;4.22;;;2.00;;
81160;SDS011;70637;48.514;14.500;2024-02-14T11:17:47;3.35;;;1.67;;
81160;SDS011;70637;48.514;14.500;2024-02-14T11:20:20;3.47;;;2.00;;
81160;SDS011;70637;48.514;14.500;2024-02-14T11:22:56;3.40;;;1.95;;
81160;SDS011;70637;48.514;14.500;2024-02-14T11:25:30;3.03;;;2.05;;
81160;SDS011;70637;48.514;14.500;2024-02-14T11:27:57;2.28;;;1.73;;
81160;SDS011;70637;48.514;14.500;2024-02-14T11:30:31;3.65;;;2.05;;
81160;SDS011;70637;48.514;14.500;2024-02-14T11:33:15;2.97;;;2.20;;
81160;SDS011;70637;48.514;14.500;2024-02-14T11:35:46;5.63;;;2.35;;
81160;SDS011;70637;48.514;14.500;2024-02-14T11:38:15;3.30;;;2.22;;
81160;SDS011;70637;48.514;14.500;2024-02-14T11:40:41;2.80;;;2.08;;
81160;SDS011;70637;48.514;14.500;2024-02-14T11:43:14;4.13;;;2.30;;
81160;SDS011;70637;48.514;14.500;2024-02-14T11:45:43;2.97;;;2.17;;
81160;SDS011;70637;48.514;14.500;2024-02-14T11:48:10;5.25;;;2.00;;
81160;SDS011;70637;48.514;14.500;2024-02-14T11:50:42;3.67;;;2.40;;
81160;SDS011;70637;48.514;14.500;2024-02-14T11:53:10;3.75;;;2.35;;
81160;SDS011;70637;48.514;14.500;2024-02-14T11:55:38;4.13;;;2.33;;
81160;SDS011;70637;48.514;14.500;2024-02-14T11:58:07;4.05;;;2.53;;
81160;SDS011;70637;48.514;14.500;2024-02-14T12:00:38;5.40;;;2.50;;
81160;SDS011;70637;48.514;14.500;2024-02-14T12:03:10;4.45;;;2.38;;
81160;SDS011;70637;48.514;14.500;2024-02-14T12:05:47;3.30;;;2.40;;
81160;SDS011;70637;48.514;14.500;2024-02-14T12:08:16;3.85;;;2.50;;
81160;SDS011;70637;48.514;14.500;2024-02-14T12:10:43;3.40;;;2.25;;
81160;SDS011;70637;48.514;14.500;2024-02-14T12:13:14;3.95;;;2.45;;
81160;SDS011;70637;48.514;14.500;2024-02-14T12:15:45;4.65;;;2.30;;
81160;SDS011;70637;48.514;14.500;2024-02-14T12:18:19;3.58;;;2.25;;
81160;SDS011;70637;48.514;14.500;2024-02-14T12:20:45;2.42;;;1.88;;
81160;SDS011;70637;48.514;14.500;2024-02-14T12:23:14;3.97;;;2.20;;
81160;SDS011;70637;48.514;14.500;2024-02-14T12:25:44;3.42;;;2.30;;
81160;SDS011;70637;48.514;14.500;2024-02-14T12:28:18;3.13;;;2.33;;
81160;SDS011;70637;48.514;14.500;2024-02-14T12:30:48;3.22;;;2.13;;
81160;SDS011;70637;48.514;14.500;2024-02-14T12:33:17;3.63;;;2.42;;
81160;SDS011;70637;48.514;14.500;2024-02-14T12:35:46;3.67;;;2.17;;
81160;SDS011;70637;48.514;14.500;2024-02-14T12:38:14;3.80;;;2.22;;
81160;SDS011;70637;48.514;14.500;2024-02-14T12:40:42;3.58;;;2.08;;
81160;SDS011;70637;48.514;14.500;2024-02-14T12:43:09;6.10;;;2.58;;
81160;SDS011;70637;48.514;14.500;2024-02-14T12:45:40;5.78;;;2.25;;
81160;SDS011;70637;48.514;14.500;2024-02-14T12:48:11;4.85;;;2.33;;
81160;SDS011;70637;48.514;14.500;2024-02-14T12:50:38;4.10;;;2.00;;
81160;SDS011;70637;48.514;14.500;2024-02-14T12:53:09;4.43;;;2.20;;
81160;SDS011;70637;48.514;14.500;2024-02-14T12:55:35;4.07;;;2.40;;
81160;SDS011;70637;48.514;14.500;2024-02-14T12:58:01;4.22;;;2.40;;
81160;SDS011;70637;48.514;14.500;2024-02-14T13:00:27;4.40;;;2.30;;
81160;SDS011;70637;48.514;14.500;2024-02-14T13:02:54;3.80;;;2.10;;
81160;SDS011;70637;48.514;14.500;2024-02-14T13:05:20;6.95;;;2.60;;
81160;SDS011;70637;48.514;14.500;2024-02-14T13:07:46;6.15;;;2.50;;
81160;SDS011;70637;48.514;14.500;2024-02-14T13:10:12;3.42;;;2.20;;
81160;SDS011;70637;48.514;14.500;2024-02-14T13:12:38;3.20;;;2.20;;
81160;SDS011;70637;48.514;14.500;2024-02-14T13:15:04;4.57;;;2.15;;
81160;SDS011;70637;48.514;14.500;2024-02-14T13:17:31;3.60;;;2.20;;
81160;SDS011;70637;48.514;14.500;2024-02-14T13:19:57;4.78;;;2.60;;
81160;SDS011;70637;48.514;14.500;2024-02-14T13:22:25;5.60;;;2.65;;
81160;SDS011;70637;48.514;14.500;2024-02-14T13:24:51;4.55;;;2.40;;
81160;SDS011;70637;48.514;14.500;2024-02-14T13:27:17;6.30;;;2.60;;
81160;SDS011;70637;48.514;14.500;2024-02-14T13:29:46;4.03;;;2.17;;
81160;SDS011;70637;48.514;14.500;2024-02-14T13:32:12;5.22;;;2.60;;
81160;SDS011;70637;48.514;14.500;2024-02-14T13:34:38;3.55;;;2.42;;
81160;SDS011;70637;48.514;14.500;2024-02-14T13:37:04;6.10;;;2.53;;
81160;SDS011;70637;48.514;14.500;2024-02-14T13:39:30;4.05;;;2.30;;
81160;SDS011;70637;48.514;14.500;2024-02-14T13:41:56;6.03;;;2.30;;
81160;SDS011;70637;48.514;14.500;2024-02-14T13:44:24;4.45;;;2.40;;
81160;SDS011;70637;48.514;14.500;2024-02-14T13:46:51;6.85;;;2.13;;
81160;SDS011;70637;48.514;14.500;2024-02-14T13:49:18;3.25;;;2.20;;
81160;SDS011;70637;48.514;14.500;2024-02-14T13:51:48;3.80;;;2.28;;
81160;SDS011;70637;48.514;14.500;2024-02-14T13:54:15;3.55;;;2.00;;
81160;SDS011;70637;48.514;14.500;2024-02-14T13:56:41;4.28;;;2.10;;
81160;SDS011;70637;48.514;14.500;2024-02-14T13:59:07;2.85;;;2.10;;
81160;SDS011;70637;48.514;14.500;2024-02-14T14:01:33;4.47;;;2.28;;
81160;SDS011;70637;48.514;14.500;2024-02-14T14:03:58;3.90;;;2.03;;
81160;SDS011;70637;48.514;14.500;2024-02-14T14:06:24;4.38;;;2.25;;
81160;SDS011;70637;48.514;14.500;2024-02-14T14:08:50;2.40;;;2.05;;
81160;SDS011;70637;48.514;14.500;2024-02-14T14:11:16;3.50;;;2.10;;
81160;SDS011;70637;48.514;14.500;2024-02-14T14:13:42;4.45;;;2.22;;
81160;SDS011;70637;48.514;14.500;2024-02-14T14:16:08;3.35;;;1.88;;
81160;SDS011;70637;48.514;14.500;2024-02-14T14:18:36;3.67;;;2.10;;
81160;SDS011;70637;48.514;14.500;2024-02-14T14:21:02;4.70;;;2.08;;
81160;SDS011;70637;48.514;14.500;2024-02-14T14:23:28;2.70;;;1.80;;
81160;SDS011;70637;48.514;14.500;2024-02-14T14:25:54;4.00;;;1.90;;
81160;SDS011;70637;48.514;14.500;2024-02-14T14:28:20;3.35;;;2.20;;
81160;SDS011;70637;48.514;14.500;2024-02-14T14:30:50;3.47;;;1.80;;
81160;SDS011;70637;48.514;14.500;2024-02-14T14:33:16;3.53;;;1.65;;
81160;SDS011;70637;48.514;14.500;2024-02-14T14:35:41;3.38;;;1.98;;
81160;SDS011;70637;48.514;14.500;2024-02-14T14:38:07;2.92;;;1.90;;